Time;durP1;ratioP1;P1;durP2;ratioP2;P2;SDS_P1;SDS_P2;PMS_P1;PMS_P2;Temp;Humidity;BMP_temperature;BMP_pressure;BME280_temperature;BME280_humidity;BME280_pressure;Samples;Min_cycle;Max_cycle;Signal;HPM_P1;HPM_P2
2022/04/03 00:02:24;;;;;;;5.45;2.60;;;;;;;-1.60;42.90;100852.77;1649917;86;20920;-79
2022/04/03 00:04:50;;;;;;;5.45;2.90;;;;;;;-1.61;42.99;100853.58;1649912;86;21124;-79
2022/04/03 00:07:17;;;;;;;4.03;2.37;;;;;;;-1.64;43.36;100853.46;1640827;86;21139;-79
2022/04/03 00:09:46;;;;;;;8.08;2.75;;;;;;;-1.68;43.04;100847.41;1649471;86;21069;-79
2022/04/03 00:12:12;;;;;;;3.62;2.35;;;;;;;-1.67;43.30;100847.88;1642750;86;20913;-78
2022/04/03 00:14:38;;;;;;;4.20;1.90;;;;;;;-1.67;43.38;100854.61;1635174;86;21052;-78
2022/04/03 00:17:06;;;;;;;5.67;2.50;;;;;;;-1.68;43.84;100855.42;1666948;84;21087;-78
2022/04/03 00:19:32;;;;;;;7.12;2.83;;;;;;;-1.72;43.70;100852.31;1656163;84;21116;-78
2022/04/03 00:22:01;;;;;;;5.78;2.70;;;;;;;-1.74;43.60;100850.13;1632606;86;21079;-79
2022/04/03 00:24:27;;;;;;;6.33;2.22;;;;;;;-1.75;43.61;100851.80;1623308;87;21143;-78
2022/04/03 00:26:53;;;;;;;3.25;2.17;;;;;;;-1.75;43.64;100847.99;1627200;86;21107;-78
2022/04/03 00:29:20;;;;;;;3.60;1.95;;;;;;;-1.78;43.74;100850.41;1625559;86;24982;-78
2022/04/03 00:31:46;;;;;;;6.03;2.37;;;;;;;-1.79;44.49;100838.95;1628772;86;21004;-79
2022/04/03 00:34:12;;;;;;;3.00;2.15;;;;;;;-1.79;44.01;100850.36;1623537;87;21121;-79
2022/04/03 00:36:38;;;;;;;5.58;2.52;;;;;;;-1.80;43.96;100843.16;1639541;86;21382;-79
2022/04/03 00:39:04;;;;;;;5.20;2.15;;;;;;;-1.82;43.95;100840.10;1650356;86;20973;-79
2022/04/03 00:41:30;;;;;;;5.78;3.08;;;;;;;-1.84;44.07;100836.65;1644244;85;21136;-79
2022/04/03 00:43:59;;;;;;;2.80;2.12;;;;;;;-1.85;44.38;100842.52;1627997;86;21536;-79
2022/04/03 00:46:38;;;;;;;3.58;2.10;;;;;;;-1.87;44.28;100844.14;1656731;85;20924;-79
2022/04/03 00:49:04;;;;;;;3.60;2.08;;;;;;;-1.88;44.43;100845.80;1647205;84;20933;-79
2022/04/03 00:51:30;;;;;;;4.85;2.37;;;;;;;-1.88;44.33;100839.88;1684483;84;20877;-80
2022/04/03 00:53:56;;;;;;;;;;;;;;;-1.88;44.41;100838.61;1684589;84;21334;-79
2022/04/03 00:56:23;;;;;;;;;;;;;;;-1.88;45.53;100848.34;1660882;85;20306;-78
2022/04/03 00:58:50;;;;;;;4.37;1.92;;;;;;;-1.89;45.47;100844.08;1655017;86;20187;-78
2022/04/03 01:01:17;;;;;;;3.27;2.25;;;;;;;-1.91;44.67;100841.02;1669527;84;21122;-79
2022/04/03 01:03:44;;;;;;;2.77;1.90;;;;;;;-1.92;44.88;100841.83;1659520;84;21463;-79
2022/04/03 01:06:10;;;;;;;5.40;2.00;;;;;;;-1.93;44.73;100848.97;1655671;85;21130;-79
2022/04/03 01:08:36;;;;;;;5.60;2.02;;;;;;;-1.94;44.82;100842.17;1666593;84;20874;-79
2022/04/03 01:11:02;;;;;;;3.77;2.30;;;;;;;-1.95;44.99;100855.65;1681716;84;21050;-79
2022/04/03 01:13:28;;;;;;;3.30;2.20;;;;;;;-1.96;45.18;100843.78;1662627;85;21072;-79
2022/04/03 01:15:59;;;;;;;4.25;2.02;;;;;;;-1.96;45.09;100852.66;1676497;83;21055;-79
2022/04/03 01:18:26;;;;;;;3.72;2.02;;;;;;;-1.96;45.28;100847.59;1693198;84;20949;-79
2022/04/03 01:20:53;;;;;;;3.95;2.25;;;;;;;-1.95;45.26;100845.52;1679279;85;20902;-79
2022/04/03 01:23:21;;;;;;;6.45;2.52;;;;;;;-1.95;45.72;100848.05;1679309;85;20902;-79
2022/04/03 01:25:47;;;;;;;4.60;2.12;;;;;;;-1.97;45.56;100845.45;1679044;85;20972;-79
2022/04/03 01:28:13;;;;;;;2.70;1.98;;;;;;;-1.98;45.46;100845.40;1679743;85;20965;-79
2022/04/03 01:30:39;;;;;;;4.15;2.58;;;;;;;-1.99;45.45;100848.33;1667423;85;25066;-80
2022/04/03 01:33:05;;;;;;;2.40;1.85;;;;;;;-2.01;45.59;100846.14;1679568;84;20934;-80
2022/04/03 01:35:31;;;;;;;4.65;1.98;;;;;;;-2.02;45.63;100846.95;1669202;84;20907;-79
2022/04/03 01:37:57;;;;;;;3.37;2.17;;;;;;;-2.04;45.64;100847.30;1675680;85;20930;-78
2022/04/03 01:40:23;;;;;;;4.53;2.65;;;;;;;-2.06;45.81;100849.77;1670615;85;20902;-78
2022/04/03 01:42:50;;;;;;;4.05;2.47;;;;;;;-2.07;45.75;100849.70;1652028;85;20945;-78
2022/04/03 01:45:16;;;;;;;3.65;3.05;;;;;;;-2.10;45.75;100855.55;1651933;86;25079;-79
2022/04/03 01:47:44;;;;;;;4.72;2.27;;;;;;;-2.13;45.77;100852.90;1653696;85;21438;-78
2022/04/03 01:50:10;;;;;;;4.15;2.60;;;;;;;-2.12;45.98;100857.56;1665794;84;20902;-77
2022/04/03 01:52:35;;;;;;;6.70;2.70;;;;;;;-2.15;46.05;100858.72;1658710;84;20890;-77
2022/04/03 01:55:02;;;;;;;6.62;2.55;;;;;;;-2.18;46.05;100856.06;1657385;85;21628;-78
2022/04/03 01:57:28;;;;;;;;;;;;;;;-2.19;46.08;100864.46;1654446;85;21411;-78
2022/04/03 01:59:54;;;;;;;3.60;2.13;;;;;;;-2.21;46.50;100859.34;1657526;85;20528;-79
2022/04/03 02:02:21;;;;;;;3.27;2.08;;;;;;;-2.22;46.18;100857.61;1655550;85;23750;-79
2022/04/03 02:04:46;;;;;;;5.40;1.95;;;;;;;-2.23;46.39;100863.87;1650844;84;21026;-79
2022/04/03 02:07:13;;;;;;;5.40;2.05;;;;;;;-2.23;46.35;100872.74;1650874;86;21104;-79
2022/04/03 02:09:39;;;;;;;2.75;1.65;;;;;;;-2.24;46.28;100864.69;1656375;85;21085;-79
2022/04/03 02:12:05;;;;;;;4.25;2.08;;;;;;;-2.25;46.82;100861.69;1650672;85;21077;-79
2022/04/03 02:14:31;;;;;;;2.65;1.72;;;;;;;-2.25;46.58;100868.02;1650698;86;25226;-78
2022/04/03 02:17:01;;;;;;;6.80;2.37;;;;;;;-2.23;46.98;100868.55;1650857;85;20993;-78
2022/04/03 02:19:27;;;;;;;4.28;2.10;;;;;;;-2.22;46.51;100862.67;1663025;86;21072;-78
2022/04/03 02:21:53;;;;;;;4.17;2.17;;;;;;;-2.22;46.61;100865.20;1666180;84;22336;-78
2022/04/03 02:24:19;;;;;;;5.25;1.70;;;;;;;-2.18;46.79;100868.72;1679476;84;21682;-79
2022/04/03 02:26:45;;;;;;;5.12;1.92;;;;;;;-2.16;46.78;100865.84;1663758;84;20917;-78
2022/04/03 02:29:11;;;;;;;3.55;1.90;;;;;;;-2.16;46.82;100865.84;1679503;84;21024;-78
2022/04/03 02:31:37;;;;;;;3.12;1.72;;;;;;;-2.16;46.93;100873.05;1690507;84;21128;-79
2022/04/03 02:34:05;;;;;;;4.67;1.87;;;;;;;-2.16;47.02;100871.78;1666878;84;21148;-80
2022/04/03 02:36:32;;;;;;;4.40;2.62;;;;;;;-2.14;47.02;100872.70;1662639;86;21012;-79
2022/04/03 02:39:00;;;;;;;3.50;1.90;;;;;;;-2.13;46.95;100867.23;1662480;84;21573;-78
2022/04/03 02:41:27;;;;;;;2.92;1.57;;;;;;;-2.15;46.98;100865.91;1662549;86;21088;-78
2022/04/03 02:43:54;;;;;;;3.40;1.92;;;;;;;-2.15;47.10;100865.91;1671865;84;22054;-78
2022/04/03 02:46:20;;;;;;;4.40;2.10;;;;;;;-2.15;47.18;100868.44;1674886;84;21499;-77
2022/04/03 02:48:47;;;;;;;3.60;1.90;;;;;;;-2.15;47.21;100878.58;1693624;83;21399;-77
2022/04/03 02:51:13;;;;;;;2.40;1.55;;;;;;;-2.15;47.20;100875.17;1694144;84;21457;-78
2022/04/03 02:53:45;;;;;;;2.80;1.60;;;;;;;-2.15;47.35;100880.24;1740547;81;21048;-78
2022/04/03 02:56:11;;;;;;;3.17;2.00;;;;;;;-2.16;47.33;100880.64;1741180;82;21689;-79
2022/04/03 02:58:37;;;;;;;2.67;1.80;;;;;;;-2.16;47.36;100888.65;1712024;83;20949;-78
2022/04/03 03:01:04;;;;;;;4.28;2.08;;;;;;;-2.16;47.46;100885.71;1711390;82;21580;-78
2022/04/03 03:03:30;;;;;;;5.00;1.60;;;;;;;-2.15;47.55;100890.38;1712928;83;21382;-78
2022/04/03 03:05:56;;;;;;;3.65;1.55;;;;;;;-2.17;47.46;100887.78;1722894;82;20933;-78
2022/04/03 03:08:22;;;;;;;3.35;1.60;;;;;;;-2.18;47.58;100887.72;1742373;82;21457;-78
2022/04/03 03:10:48;;;;;;;4.37;1.70;;;;;;;-2.22;47.61;100881.67;1742333;82;20858;-78
2022/04/03 03:13:14;;;;;;;4.00;1.75;;;;;;;-2.23;47.69;100885.01;1717494;82;21666;-78
2022/04/03 03:15:40;;;;;;;2.77;1.70;;;;;;;-2.23;47.68;100887.54;1713793;82;22430;-78
2022/04/03 03:18:06;;;;;;;3.42;1.90;;;;;;;-2.25;47.67;100889.14;1704382;83;21327;-78
2022/04/03 03:20:32;;;;;;;3.80;1.85;;;;;;;-2.25;47.77;100884.08;1678222;85;21540;-78
2022/04/03 03:23:00;;;;;;;2.52;1.82;;;;;;;-2.24;47.80;100883.67;1675105;85;22532;-78
2022/04/03 03:25:27;;;;;;;5.40;2.10;;;;;;;-2.25;47.84;100881.95;1653901;85;21084;-77
2022/04/03 03:27:53;;;;;;;3.17;2.00;;;;;;;-2.28;47.76;100882.69;1651866;86;21851;-77
2022/04/03 03:30:20;;;;;;;2.65;1.80;;;;;;;-2.32;47.79;100884.64;1651992;85;20887;-78
2022/04/03 03:32:46;;;;;;;6.37;1.95;;;;;;;-2.36;48.07;100884.91;1652044;85;23800;-78
2022/04/03 03:35:12;;;;;;;4.10;1.98;;;;;;;-2.36;48.01;100889.11;1655193;85;21806;-78
2022/04/03 03:37:38;;;;;;;3.45;2.12;;;;;;;-2.38;48.12;100886.92;1652194;85;20863;-78
2022/04/03 03:40:11;;;;;;;4.90;2.30;;;;;;;-2.41;48.10;100890.59;1669216;85;21442;-77
2022/04/03 03:42:35;;;;;;;3.15;1.90;;;;;;;-2.42;48.07;100892.67;1670740;85;20930;-78
2022/04/03 03:45:01;;;;;;;5.45;2.67;;;;;;;-2.44;48.20;100893.87;1679511;85;21731;-78
2022/04/03 03:47:27;;;;;;;6.33;2.35;;;;;;;-2.43;48.32;100894.33;1664726;85;20902;-78
2022/04/03 03:49:53;;;;;;;5.80;2.40;;;;;;;-2.44;48.27;100900.60;1674089;85;21361;-78
2022/04/03 03:52:19;;;;;;;5.92;2.12;;;;;;;-2.47;48.36;100897.54;1655985;85;21558;-77
2022/04/03 03:54:45;;;;;;;3.77;2.02;;;;;;;-2.48;48.35;100889.88;1672944;84;21561;-78
2022/04/03 03:57:19;;;;;;;6.12;2.90;;;;;;;-2.52;48.39;100893.95;1651478;85;21041;-78
2022/04/03 03:59:45;;;;;;;8.03;3.17;;;;;;;-2.52;48.39;100896.48;1650567;86;21519;-78
2022/04/03 04:02:11;;;;;;;5.50;2.15;;;;;;;-2.54;48.35;100898.49;1665654;85;21060;-77
2022/04/03 04:04:41;;;;;;;4.40;2.52;;;;;;;-2.57;48.47;100902.16;1658624;85;21045;-77
2022/04/03 04:07:07;;;;;;;6.22;2.58;;;;;;;-2.59;48.50;100906.30;1678018;85;20922;-78
2022/04/03 04:09:33;;;;;;;3.92;2.42;;;;;;;-2.62;48.57;100902.41;1677989;85;21085;-78
2022/04/03 04:12:04;;;;;;;6.42;2.80;;;;;;;-2.63;48.65;100904.47;1677827;85;21038;-78
2022/04/03 04:14:30;;;;;;;5.60;2.95;;;;;;;-2.68;48.62;100910.61;1676151;84;21136;-78
2022/04/03 04:16:56;;;;;;;4.08;2.65;;;;;;;-2.71;48.65;100907.55;1669288;85;20945;-78
2022/04/03 04:19:21;;;;;;;5.05;2.83;;;;;;;-2.71;48.70;100913.88;1526564;83;10000566;-78
2022/04/03 04:21:48;;;;;;;6.10;3.60;;;;;;;-2.71;48.75;100913.88;1683829;84;21023;-78
2022/04/03 04:24:20;;;;;;;3.75;2.60;;;;;;;-2.72;48.75;100912.14;1669720;85;21021;-78
2022/04/03 04:26:46;;;;;;;3.35;3.00;;;;;;;-2.74;48.75;100915.41;1634818;86;21527;-78
2022/04/03 04:29:12;;;;;;;6.62;3.55;;;;;;;-2.75;48.82;100917.08;1658177;84;21064;-78
2022/04/03 04:31:38;;;;;;;5.15;2.92;;;;;;;-2.76;48.80;100917.88;1662017;85;20898;-78
2022/04/03 04:34:04;;;;;;;10.70;5.05;;;;;;;-2.76;48.98;100919.14;1626430;87;21049;-78
2022/04/03 04:36:32;;;;;;;5.25;2.70;;;;;;;-2.73;48.97;100923.47;1645674;85;21065;-78
2022/04/03 04:38:58;;;;;;;7.53;3.70;;;;;;;-2.71;48.97;100924.00;1652898;85;21607;-78
2022/04/03 04:41:24;;;;;;;6.55;3.55;;;;;;;-2.72;49.10;100923.53;1644117;86;21105;-78
2022/04/03 04:43:57;;;;;;;6.20;4.10;;;;;;;-2.69;49.13;100924.92;1645912;85;21057;-78
2022/04/03 04:46:23;;;;;;;5.35;3.45;;;;;;;-2.64;49.13;100926.78;1661768;85;20912;-78
2022/04/03 04:48:49;;;;;;;7.37;4.08;;;;;;;-2.57;49.34;100929.61;1716070;82;21088;-78
2022/04/03 04:51:17;;;;;;;8.65;3.95;;;;;;;-2.53;49.30;100923.88;1720461;82;21080;-78
2022/04/03 04:53:43;;;;;;;5.65;3.55;;;;;;;-2.47;49.38;100924.13;1708513;82;20960;-78
2022/04/03 04:56:10;;;;;;;11.25;4.90;;;;;;;-2.40;49.46;100929.04;1711824;82;21020;-78
2022/04/03 04:58:36;;;;;;;8.70;4.25;;;;;;;-2.32;49.49;100928.95;1701246;82;21032;-78
2022/04/03 05:01:02;;;;;;;9.18;4.17;;;;;;;-2.23;49.55;100933.13;1709507;82;21793;-78
2022/04/03 05:03:29;;;;;;;13.18;4.87;;;;;;;-2.13;49.52;100933.96;1716938;81;20921;-78
2022/04/03 05:05:57;;;;;;;9.25;4.25;;;;;;;-2.04;49.70;100938.09;1730106;81;20925;-79
2022/04/03 05:08:23;;;;;;;7.97;4.20;;;;;;;-1.93;49.70;100937.66;1711331;82;21474;-79
2022/04/03 05:10:50;;;;;;;10.58;4.97;;;;;;;-1.84;49.69;100938.02;1713085;82;20901;-79
2022/04/03 05:13:16;;;;;;;9.95;4.17;;;;;;;-1.74;49.70;100938.84;1729628;82;20953;-79
2022/04/03 05:15:42;;;;;;;9.83;4.28;;;;;;;-1.65;49.67;100940.87;1725076;81;20878;-78
2022/04/03 05:18:09;;;;;;;11.97;5.30;;;;;;;-1.56;49.91;100943.32;1714335;82;20889;-78
2022/04/03 05:20:35;;;;;;;8.08;5.22;;;;;;;-1.43;49.98;100945.52;1730952;82;20854;-78
2022/04/03 05:23:01;;;;;;;10.90;5.50;;;;;;;-1.26;49.98;100949.95;1714310;82;20922;-78
2022/04/03 05:25:27;;;;;;;9.05;4.22;;;;;;;-1.16;49.93;100948.20;1710502;83;20941;-78
2022/04/03 05:27:53;;;;;;;9.00;4.85;;;;;;;-1.02;50.05;100951.21;1710652;82;20918;-78
2022/04/03 05:30:19;;;;;;;8.57;5.20;;;;;;;-0.86;50.09;100957.30;1717357;82;20925;-78
2022/04/03 05:32:45;;;;;;;8.15;4.00;;;;;;;-0.76;50.05;100951.73;1721713;82;21121;-78
2022/04/03 05:35:13;;;;;;;6.33;3.85;;;;;;;-0.68;50.09;100953.27;1740053;82;20925;-78
2022/04/03 05:37:40;;;;;;;7.37;4.30;;;;;;;-0.64;50.13;100953.84;1739629;82;20950;-78
2022/04/03 05:40:10;;;;;;;6.58;4.45;;;;;;;-0.58;50.04;100959.13;1732261;82;21600;-78
2022/04/03 05:42:36;;;;;;;10.85;4.95;;;;;;;-0.55;50.15;100960.50;1738979;82;21120;-78
2022/04/03 05:45:05;;;;;;;9.43;4.37;;;;;;;-0.52;50.07;100957.20;1738583;82;21065;-78
2022/04/03 05:47:33;;;;;;;6.72;4.37;;;;;;;-0.51;50.08;100958.91;1738952;82;21058;-78
2022/04/03 05:49:59;;;;;;;11.12;4.08;;;;;;;-0.47;50.18;100959.47;1595122;82;10001113;-78
2022/04/03 05:52:25;;;;;;;7.45;3.40;;;;;;;-0.43;50.25;100956.22;1718839;82;21461;-78
2022/04/03 05:54:51;;;;;;;7.67;4.42;;;;;;;-0.37;50.30;100958.97;1733776;81;21069;-78
2022/04/03 05:57:18;;;;;;;7.40;4.00;;;;;;;-0.36;50.21;100962.83;1711654;81;21106;-79
2022/04/03 05:59:44;;;;;;;6.53;3.33;;;;;;;-0.37;50.20;100961.09;1738642;81;21049;-78
2022/04/03 06:02:12;;;;;;;8.65;4.22;;;;;;;-0.34;50.30;100966.69;1744380;81;21083;-78
2022/04/03 06:04:38;;;;;;;8.98;4.37;;;;;;;-0.31;50.34;100962.98;1737582;81;21103;-78
2022/04/03 06:07:04;;;;;;;7.35;4.10;;;;;;;-0.27;50.36;100966.08;1738766;82;21041;-78
2022/04/03 06:09:30;;;;;;;4.20;2.90;;;;;;;-0.27;50.33;100964.81;1729404;82;21052;-78
2022/04/03 06:11:56;;;;;;;11.97;4.08;;;;;;;-0.23;50.48;100966.64;1732603;82;21131;-78
2022/04/03 06:14:22;;;;;;;9.73;4.72;;;;;;;-0.20;50.41;100976.05;1733809;82;21710;-78
2022/04/03 06:16:48;;;;;;;11.63;4.00;;;;;;;-0.17;50.32;100973.61;1733383;82;21104;-78
2022/04/03 06:19:14;;;;;;;6.17;3.75;;;;;;;-0.16;50.43;100972.39;1721559;82;21036;-78
2022/04/03 06:21:40;;;;;;;5.33;3.42;;;;;;;-0.11;50.45;100972.13;1696911;83;21092;-78
2022/04/03 06:24:07;;;;;;;7.33;4.20;;;;;;;-0.07;50.53;100972.69;1688411;83;21052;-78
2022/04/03 06:26:34;;;;;;;6.63;3.40;;;;;;;-0.05;50.44;100975.28;1726846;81;21504;-78
2022/04/03 06:28:59;;;;;;;8.15;3.80;;;;;;;-0.05;50.47;100971.47;1720941;82;20897;-78
2022/04/03 06:31:25;;;;;;;7.72;3.75;;;;;;;-0.03;50.50;100977.47;1728724;82;20929;-78
2022/04/03 06:33:51;;;;;;;8.57;4.23;;;;;;;-0.01;50.52;100979.66;1723799;82;21717;-78
2022/04/03 06:36:17;;;;;;;7.25;3.65;;;;;;;0.00;50.49;100978.84;1710118;83;20886;-78
2022/04/03 06:38:43;;;;;;;7.00;3.42;;;;;;;0.04;50.57;100974.68;1738048;82;20953;-79
2022/04/03 06:41:10;;;;;;;5.78;4.10;;;;;;;0.07;50.61;100981.14;1737420;82;21005;-78
2022/04/03 06:43:38;;;;;;;7.78;3.65;;;;;;;0.07;50.58;100984.54;1737721;82;21045;-78
2022/04/03 06:46:05;;;;;;;7.40;4.50;;;;;;;0.11;50.65;100986.78;1729552;82;21884;-78
2022/04/03 06:48:31;;;;;;;11.53;7.28;;;;;;;0.14;50.69;100984.33;1731716;82;21039;-78
2022/04/03 06:50:57;;;;;;;7.90;4.60;;;;;;;0.19;50.78;100986.20;1727942;82;21112;-78
2022/04/03 06:53:23;;;;;;;10.48;4.58;;;;;;;0.25;50.74;100988.08;1728449;81;21334;-77
2022/04/03 06:55:49;;;;;;;8.55;4.70;;;;;;;0.25;50.73;100988.95;1732083;82;21111;-79
2022/04/03 06:58:15;;;;;;;6.85;4.20;;;;;;;0.30;50.78;100989.09;1730433;82;21048;-78
2022/04/03 07:00:43;;;;;;;7.40;4.40;;;;;;;0.36;50.85;100989.69;1732107;81;21035;-78
2022/04/03 07:03:09;;;;;;;10.50;4.20;;;;;;;0.47;50.91;100990.48;1735565;80;21065;-78
2022/04/03 07:05:35;;;;;;;10.05;4.40;;;;;;;0.60;50.90;100991.28;1737716;82;21128;-78
2022/04/03 07:08:01;;;;;;;8.43;4.28;;;;;;;0.71;50.96;100988.20;1728443;82;21075;-78
2022/04/03 07:10:28;;;;;;;8.45;4.00;;;;;;;0.82;50.98;100986.83;1733928;82;21036;-78
2022/04/03 07:12:55;;;;;;;;;;;;;;;0.91;50.98;100991.78;1732542;81;21051;-76
2022/04/03 07:15:21;;;;;;;7.00;3.75;;;;;;;1.02;51.19;100993.37;1723966;81;20206;-76
2022/04/03 07:17:48;;;;;;;7.15;4.33;;;;;;;1.13;51.03;100991.95;1690584;82;21122;-76
2022/04/03 07:20:14;;;;;;;;;;;;;;;1.23;51.05;100993.08;1693318;83;21109;-76
2022/04/03 07:22:42;;;;;;;7.55;4.25;;;;;;;1.23;51.11;100995.63;1681814;84;20184;-75
2022/04/03 07:25:11;;;;;;;6.42;4.10;;;;;;;1.24;51.00;100995.67;1663370;85;20942;-76
2022/04/03 07:27:39;;;;;;;6.15;3.92;;;;;;;1.27;50.96;100998.71;1663021;86;21455;-76
2022/04/03 07:30:08;;;;;;;5.55;3.42;;;;;;;1.47;51.31;100996.30;1668603;84;20910;-76
2022/04/03 07:32:36;;;;;;;5.05;3.45;;;;;;;1.94;51.38;100995.37;1690537;84;20937;-76
2022/04/03 07:35:03;;;;;;;5.83;3.20;;;;;;;2.41;51.37;100995.20;1685242;84;20941;-76
2022/04/03 07:37:32;;;;;;;6.92;4.08;;;;;;;2.74;51.39;100988.69;1693878;82;552602;-76
2022/04/03 07:39:59;;;;;;;6.42;3.98;;;;;;;2.93;51.23;100992.09;1743121;81;20993;-76
2022/04/03 07:42:25;;;;;;;5.83;3.58;;;;;;;3.05;51.29;100989.34;1749537;81;21061;-76
2022/04/03 07:44:51;;;;;;;4.30;2.67;;;;;;;3.34;51.49;100994.59;1757267;81;22611;-77
2022/04/03 07:47:18;;;;;;;5.97;3.35;;;;;;;3.66;51.46;100993.47;1768802;81;21006;-77
2022/04/03 07:49:44;;;;;;;7.43;2.73;;;;;;;3.98;51.53;100995.31;1769319;81;20870;-77
2022/04/03 07:52:10;;;;;;;3.90;2.83;;;;;;;4.22;51.46;100996.52;1705046;82;21147;-77
2022/04/03 07:54:38;;;;;;;4.62;3.08;;;;;;;4.31;51.39;101000.51;1738873;81;21061;-77
2022/04/03 07:57:10;;;;;;;4.15;2.55;;;;;;;4.43;51.43;101003.26;1740714;82;21033;-77
2022/04/03 07:59:38;;;;;;;4.37;2.25;;;;;;;4.49;51.36;100998.66;1749148;82;21383;-78
2022/04/03 08:02:04;;;;;;;5.30;3.70;;;;;;;4.56;51.31;100996.63;1753014;81;20942;-77
2022/04/03 08:04:30;;;;;;;4.12;2.60;;;;;;;4.66;51.40;100995.92;1769143;80;21037;-77
2022/04/03 08:06:57;;;;;;;3.75;2.27;;;;;;;4.71;51.26;100993.39;1752637;80;21036;-78
2022/04/03 08:09:23;;;;;;;3.13;2.17;;;;;;;4.80;51.30;100994.80;1738622;82;20882;-78
2022/04/03 08:11:50;;;;;;;3.20;2.12;;;;;;;4.93;51.19;100992.42;1746678;80;21496;-78
2022/04/03 08:14:16;;;;;;;5.58;2.17;;;;;;;5.03;51.20;100989.55;1749376;81;21049;-78
2022/04/03 08:16:43;;;;;;;;;;;;;;;5.14;51.15;100985.42;1771508;80;20941;-77
2022/04/03 08:19:09;;;;;;;22.20;20.72;;;;;;;5.34;50.95;100989.47;1767625;80;20176;-77
2022/04/03 08:21:35;;;;;;;3.30;2.90;;;;;;;5.48;51.20;100985.78;1699066;82;20965;-77
2022/04/03 08:24:01;;;;;;;6.40;2.75;;;;;;;5.64;51.19;100983.81;1742646;81;21422;-77
2022/04/03 08:26:27;;;;;;;3.20;2.40;;;;;;;5.80;51.12;100988.64;1750918;81;20835;-77
2022/04/03 08:28:54;;;;;;;3.13;1.80;;;;;;;5.92;50.96;100983.23;1769974;80;21616;-77
2022/04/03 08:31:23;;;;;;;8.40;7.67;;;;;;;6.06;50.90;100987.62;1756335;80;21095;-77
2022/04/03 08:33:50;;;;;;;3.47;1.32;;;;;;;6.12;50.74;100993.67;1723463;80;20984;-77
2022/04/03 08:36:17;;;;;;;1.95;1.32;;;;;;;6.14;50.78;100993.27;1755925;80;21527;-77
2022/04/03 08:38:43;;;;;;;;;;;;;;;6.20;50.72;100993.73;1759170;80;21096;-77
2022/04/03 08:41:10;;;;;;;3.08;1.40;;;;;;;6.23;49.88;100994.62;1759243;80;287663;-77
2022/04/03 08:43:37;;;;;;;5.65;5.25;;;;;;;6.04;50.19;100986.75;1763034;80;21087;-77
2022/04/03 08:46:08;;;;;;;2.47;1.60;;;;;;;5.98;50.36;100991.41;1752352;80;21051;-77
2022/04/03 08:48:37;;;;;;;1.50;1.40;;;;;;;6.00;50.39;100983.72;1755586;80;21044;-77
2022/04/03 08:51:05;;;;;;;3.65;1.77;;;;;;;6.07;50.42;100979.94;1754846;80;21103;-77
2022/04/03 08:53:32;;;;;;;2.58;1.27;;;;;;;6.19;50.33;100983.89;1728123;80;21060;-78
2022/04/03 08:55:59;;;;;;;1.60;1.20;;;;;;;6.32;50.27;100983.52;1752675;80;21043;-77
2022/04/03 08:58:26;;;;;;;1.35;1.17;;;;;;;6.39;50.03;100986.58;1752869;80;21572;-77
2022/04/03 09:00:52;;;;;;;2.62;1.42;;;;;;;6.32;49.80;100982.24;1759514;80;21033;-77
2022/04/03 09:03:18;;;;;;;1.47;1.30;;;;;;;6.28;49.89;100980.08;1767500;80;20969;-77
2022/04/03 09:05:47;;;;;;;2.10;1.65;;;;;;;6.28;49.46;100977.94;1755442;80;21137;-77
2022/04/03 09:08:14;;;;;;;1.67;1.05;;;;;;;6.19;49.53;100971.05;1764981;80;21037;-77
2022/04/03 09:10:41;;;;;;;;;;;;;;;6.14;49.58;100979.56;1762475;80;21114;-77
2022/04/03 09:13:09;;;;;;;4.80;1.17;;;;;;;6.07;48.87;100981.64;1760556;80;20606;-77
2022/04/03 09:15:36;;;;;;;2.30;0.70;;;;;;;5.98;49.32;100976.02;1759371;80;21056;-76
2022/04/03 09:18:04;;;;;;;1.17;0.80;;;;;;;5.93;48.97;100974.69;1764152;80;20973;-76
2022/04/03 09:20:34;;;;;;;1.45;0.98;;;;;;;5.82;48.94;100977.97;1761254;80;21098;-76
2022/04/03 09:23:03;;;;;;;1.50;0.90;;;;;;;5.70;48.79;100970.19;1762568;80;21085;-76
2022/04/03 09:25:34;;;;;;;1.55;0.90;;;;;;;5.64;48.46;100972.27;1758263;80;20945;-76
2022/04/03 09:28:05;;;;;;;1.98;1.30;;;;;;;5.58;48.39;100967.94;1759891;80;21354;-77
2022/04/03 09:30:44;;;;;;;2.77;1.10;;;;;;;5.65;48.61;100963.31;1754244;80;20945;-77
2022/04/03 09:33:19;;;;;;;3.35;1.25;;;;;;;5.75;48.29;100962.94;1752238;80;21088;-77
2022/04/03 09:35:58;;;;;;;1.60;0.93;;;;;;;5.80;48.38;100952.30;1745993;82;21107;-77
2022/04/03 09:38:27;;;;;;;1.17;0.72;;;;;;;5.84;48.17;100964.73;1735331;82;21109;-77
2022/04/03 09:40:55;;;;;;;1.12;0.78;;;;;;;5.82;48.07;100955.73;1768280;80;21016;-77
2022/04/03 09:43:28;;;;;;;3.47;0.90;;;;;;;5.80;47.77;100966.41;1768664;80;21532;-77
2022/04/03 09:45:58;;;;;;;3.87;1.10;;;;;;;5.78;47.84;100968.52;1762108;80;20936;-77
2022/04/03 09:48:38;;;;;;;2.40;0.93;;;;;;;5.79;47.76;100960.84;1751219;81;20929;-77
2022/04/03 09:51:08;;;;;;;1.55;0.90;;;;;;;5.78;47.64;100957.84;1712183;82;20936;-77
2022/04/03 09:53:44;;;;;;;1.87;0.98;;;;;;;5.80;47.35;100966.83;1766368;79;20891;-78
2022/04/03 09:56:14;;;;;;;1.45;1.10;;;;;;;5.76;47.49;100969.79;1748607;80;20906;-77
2022/04/03 09:58:55;;;;;;;2.37;1.40;;;;;;;5.70;47.25;100960.78;1749858;80;20976;-78
2022/04/03 10:01:38;;;;;;;2.22;1.30;;;;;;;5.65;47.08;100962.02;1751563;80;20941;-78
2022/04/03 10:04:11;;;;;;;2.55;0.98;;;;;;;5.61;47.13;100961.98;1753134;80;20901;-78
2022/04/03 10:06:38;;;;;;;3.77;1.25;;;;;;;5.57;46.88;100964.08;1751426;80;20928;-77
2022/04/03 10:09:12;;;;;;;4.47;1.17;;;;;;;5.53;46.93;100957.19;1693728;83;20911;-77
2022/04/03 10:11:40;;;;;;;2.85;1.30;;;;;;;5.57;46.90;100957.66;1748197;80;20978;-77
2022/04/03 10:14:07;;;;;;;1.95;1.35;;;;;;;5.60;45.78;100955.98;1752356;80;20901;-77
2022/04/03 10:16:33;;;;;;;2.75;1.20;;;;;;;5.56;46.54;100953.38;1754114;80;21357;-77
2022/04/03 10:19:00;;;;;;;3.17;1.30;;;;;;;5.57;46.46;100952.11;1716049;82;21021;-77
2022/04/03 10:21:37;;;;;;;1.50;1.00;;;;;;;5.50;45.05;100926.39;1731482;82;281540;-78
2022/04/03 10:24:11;;;;;;;2.50;1.12;;;;;;;5.50;45.05;100926.39;1743772;81;22293;-78
2022/04/03 10:26:39;;;;;;;1.52;1.17;;;;;;;5.57;46.02;100946.98;1730652;81;21097;-78
2022/04/03 10:29:09;;;;;;;1.52;1.07;;;;;;;5.66;45.82;100943.64;1716029;83;21088;-77
2022/04/03 10:31:37;;;;;;;2.02;1.00;;;;;;;5.62;45.72;100944.03;1717432;82;20910;-78
2022/04/03 10:34:14;;;;;;;1.50;1.20;;;;;;;5.57;45.62;100943.55;1717714;82;20906;-77
2022/04/03 10:36:43;;;;;;;1.57;0.90;;;;;;;5.66;45.76;100941.08;1704386;82;21526;-77
2022/04/03 10:39:09;;;;;;;3.25;1.00;;;;;;;5.81;45.47;100937.34;1688843;83;20930;-77
2022/04/03 10:41:43;;;;;;;2.27;0.80;;;;;;;5.89;45.43;100934.87;1711657;82;20918;-77
2022/04/03 10:44:23;;;;;;;1.77;1.05;;;;;;;5.96;45.49;100935.35;1687219;83;21973;-77
2022/04/03 10:47:12;;;;;;;2.87;1.20;;;;;;;6.07;45.42;100942.72;1706025;83;21298;-77
2022/04/03 10:50:00;;;;;;;4.72;0.93;;;;;;;6.09;45.47;100932.45;1711700;82;20892;-77
2022/04/03 10:52:43;;;;;;;2.33;1.05;;;;;;;6.17;45.29;100936.80;1717921;82;20945;-77
2022/04/03 10:55:25;;;;;;;1.40;0.95;;;;;;;6.12;45.11;100933.77;1702868;83;20918;-77
2022/04/03 10:57:58;;;;;;;2.05;1.07;;;;;;;6.15;44.96;100926.08;1737622;82;20933;-77
2022/04/03 11:00:28;;;;;;;1.30;1.17;;;;;;;6.34;45.19;100920.19;1738181;81;20954;-77
2022/04/03 11:03:01;;;;;;;4.90;1.35;;;;;;;6.49;45.00;100915.57;1736091;81;20917;-77
2022/04/03 11:05:32;;;;;;;3.67;1.57;;;;;;;6.61;44.95;100918.20;1717649;83;20918;-77
2022/04/03 11:08:07;;;;;;;1.70;1.07;;;;;;;6.74;44.88;100916.56;1714569;83;20942;-77
2022/04/03 11:11:01;;;;;;;1.75;1.40;;;;;;;6.69;43.60;100910.11;1713829;83;20918;-78
2022/04/03 11:13:36;;;;;;;1.62;1.17;;;;;;;6.63;44.62;100906.23;1699867;83;21101;-77
2022/04/03 11:16:13;;;;;;;2.72;1.17;;;;;;;6.67;44.34;100908.39;1708337;83;21084;-74
2022/04/03 11:18:47;;;;;;;3.02;1.32;;;;;;;6.61;44.34;100911.78;1715082;83;20955;-75
2022/04/03 11:21:27;;;;;;;3.12;1.22;;;;;;;6.58;44.31;100907.91;1697361;83;20930;-75
2022/04/03 11:24:15;;;;;;;3.02;1.32;;;;;;;6.59;44.33;100913.48;1682029;84;20958;-75
2022/04/03 11:26:43;;;;;;;1.07;0.98;;;;;;;6.55;44.19;100910.05;1657516;85;21092;-75
2022/04/03 11:29:10;;;;;;;1.20;1.00;;;;;;;6.51;44.29;100920.30;1671438;83;20953;-75
2022/04/03 11:31:38;;;;;;;2.52;1.30;;;;;;;6.49;44.10;100913.86;1697915;82;21497;-75
2022/04/03 11:34:06;;;;;;;2.05;1.35;;;;;;;6.48;44.23;100905.72;1711839;82;21477;-75